Time;durP1;ratioP1;P1;durP2;ratioP2;P2;SDS_P1;SDS_P2;PMS_P1;PMS_P2;Temp;Humidity;BMP_temperature;BMP_pressure;BME280_temperature;BME280_humidity;BME280_pressure;Samples;Min_cycle;Max_cycle;Signal;HPM_P1;HPM_P2
2022/07/12 00:00:07;;;;;;;0.70;0.40;;;;;;;12.75;69.20;98517.67;104703;1274;64424;-24
2022/07/12 00:02:34;;;;;;;1.90;0.60;;;;;;;13.12;67.84;98518.56;104665;1274;63102;-24
2022/07/12 00:05:01;;;;;;;0.90;0.50;;;;;;;13.43;66.58;98523.29;104863;1271;75379;-24
2022/07/12 00:07:28;;;;;;;0.70;0.40;;;;;;;13.44;66.34;98519.94;104717;1272;76807;-24
2022/07/12 00:09:56;;;;;;;0.50;0.50;;;;;;;13.26;66.97;98518.35;104849;1274;75470;-24
2022/07/12 00:12:23;;;;;;;0.70;0.60;;;;;;;13.12;67.39;98524.48;105088;1274;62927;-24
2022/07/12 00:14:51;;;;;;;1.00;0.50;;;;;;;12.93;68.16;98523.39;104821;1274;63009;-24
2022/07/12 00:17:18;;;;;;;0.60;0.60;;;;;;;12.81;68.69;98526.98;104718;1271;76298;-25
2022/07/12 00:19:45;;;;;;;3.30;0.80;;;;;;;12.64;69.42;98532.16;105018;1272;76998;-24
2022/07/12 00:22:13;;;;;;;0.80;0.50;;;;;;;12.54;69.96;98531.41;105086;1271;75451;-24
2022/07/12 00:24:40;;;;;;;0.60;0.50;;;;;;;12.96;68.68;98529.52;104705;1274;62836;-24
2022/07/12 00:27:07;;;;;;;0.60;0.40;;;;;;;13.24;67.32;98525.50;104726;1271;63066;-24
2022/07/12 00:29:34;;;;;;;1.00;0.70;;;;;;;13.27;67.20;98528.94;104790;1271;76219;-24
2022/07/12 00:32:02;;;;;;;2.20;0.70;;;;;;;13.11;67.76;98528.96;104777;1271;77228;-24
2022/07/12 00:34:29;;;;;;;1.20;0.70;;;;;;;12.90;68.40;98526.95;104713;1274;75146;-24
2022/07/12 00:36:56;;;;;;;0.70;0.60;;;;;;;12.72;69.26;98525.63;104755;1274;63406;-24
2022/07/12 00:39:22;;;;;;;1.30;0.80;;;;;;;12.53;70.00;98527.46;104783;1274;62744;-24
2022/07/12 00:41:50;;;;;;;2.50;0.50;;;;;;;12.45;70.34;98530.73;104720;1274;76622;-24
2022/07/12 00:44:17;;;;;;;1.30;0.50;;;;;;;12.82;69.35;98523.38;104841;1272;74864;-24
2022/07/12 00:46:45;;;;;;;4.20;0.80;;;;;;;13.18;68.11;98529.25;104714;1272;75833;-24
2022/07/12 00:49:15;;;;;;;4.30;1.90;;;;;;;13.23;67.71;98528.92;104653;1272;63068;-24
2022/07/12 00:51:43;;;;;;;0.90;0.60;;;;;;;13.11;68.02;98530.68;104711;1272;62026;-24
2022/07/12 00:54:10;;;;;;;0.50;0.50;;;;;;;12.86;69.01;98524.39;104804;1271;76575;-24
2022/07/12 00:56:37;;;;;;;1.30;0.50;;;;;;;12.63;70.00;98525.10;104763;1271;77010;-24
2022/07/12 00:59:04;;;;;;;2.80;0.80;;;;;;;12.42;70.66;98528.41;104845;1272;74166;-24
2022/07/12 01:01:31;;;;;;;2.40;0.60;;;;;;;12.26;71.37;98527.33;104758;1274;64505;-24
2022/07/12 01:03:59;;;;;;;0.60;0.60;;;;;;;12.56;70.92;98525.10;104786;1274;61978;-24
2022/07/12 01:06:26;;;;;;;1.10;0.50;;;;;;;12.84;69.74;98518.68;104780;1271;75434;-24
2022/07/12 01:08:53;;;;;;;0.70;0.60;;;;;;;12.70;69.99;98519.05;104771;1272;75753;-24
2022/07/12 01:11:20;;;;;;;3.00;0.80;;;;;;;12.54;70.20;98517.64;104766;1271;75150;-24
2022/07/12 01:13:48;;;;;;;2.20;0.80;;;;;;;12.31;71.00;98516.86;105078;1271;62784;-24
2022/07/12 01:16:15;;;;;;;1.30;0.70;;;;;;;12.09;71.81;98517.27;104835;1274;61151;-24
2022/07/12 01:18:44;;;;;;;0.90;0.50;;;;;;;11.85;73.28;98516.42;104715;1274;76465;-24
2022/07/12 01:21:15;;;;;;;1.10;0.60;;;;;;;12.20;72.00;98511.53;104870;1272;76495;-24
2022/07/12 01:23:42;;;;;;;1.90;0.80;;;;;;;12.40;71.12;98510.34;104662;1271;75720;-24
2022/07/12 01:26:09;;;;;;;1.00;0.60;;;;;;;12.32;71.09;98507.08;104671;1271;61110;-24
2022/07/12 01:28:36;;;;;;;1.40;0.60;;;;;;;12.09;71.93;98502.52;104695;1271;61909;-24
2022/07/12 01:31:04;;;;;;;1.30;0.60;;;;;;;11.79;73.26;98495.38;104808;1271;76866;-24
2022/07/12 01:33:33;;;;;;;3.30;0.70;;;;;;;11.52;74.24;98494.40;104601;1274;75981;-24
2022/07/12 01:36:00;;;;;;;0.80;0.50;;;;;;;11.47;75.29;98489.70;104733;1271;75355;-24
2022/07/12 01:38:28;;;;;;;1.70;0.80;;;;;;;11.93;73.42;98490.37;104688;1271;61176;-24
2022/07/12 01:40:54;;;;;;;0.90;0.70;;;;;;;11.98;72.95;98490.11;104788;1271;63088;-24
2022/07/12 01:43:21;;;;;;;3.10;0.70;;;;;;;11.88;73.48;98496.62;104675;1271;76541;-24
2022/07/12 01:45:49;;;;;;;0.70;0.70;;;;;;;11.70;73.91;98496.05;104815;1271;76898;-24
2022/07/12 01:48:16;;;;;;;0.90;0.70;;;;;;;11.49;74.88;98499.23;104730;1274;75452;-24
2022/07/12 01:50:43;;;;;;;0.80;0.60;;;;;;;11.33;75.29;98500.84;104982;1271;64648;-24
2022/07/12 01:53:11;;;;;;;1.10;0.50;;;;;;;11.70;74.69;98496.94;105081;1271;62785;-24
2022/07/12 01:55:38;;;;;;;1.10;0.90;;;;;;;12.04;72.96;98490.58;104728;1275;75761;-24
2022/07/12 01:58:06;;;;;;;1.80;0.70;;;;;;;11.99;72.88;98488.58;104918;1274;77166;-24
2022/07/12 02:00:33;;;;;;;1.30;0.90;;;;;;;11.76;73.90;98489.02;104866;1271;75467;-24
2022/07/12 02:03:00;;;;;;;2.30;0.90;;;;;;;11.52;74.70;98488.85;105125;1271;63096;-24
2022/07/12 02:05:28;;;;;;;1.60;0.90;;;;;;;11.34;75.53;98486.58;104972;1274;61830;-24
2022/07/12 02:07:55;;;;;;;1.00;0.70;;;;;;;11.24;75.62;98487.96;104611;1274;76692;-24
2022/07/12 02:10:22;;;;;;;1.90;0.70;;;;;;;11.59;74.96;98485.91;104615;1274;75754;-24
2022/07/12 02:12:49;;;;;;;3.30;1.00;;;;;;;11.86;73.88;98482.90;104622;1274;75699;-24
2022/07/12 02:15:16;;;;;;;2.70;1.00;;;;;;;11.81;73.77;98486.12;104592;1274;61281;-24
2022/07/12 02:17:44;;;;;;;1.80;0.80;;;;;;;11.57;74.47;98486.98;104734;1274;62343;-24
2022/07/12 02:20:12;;;;;;;2.70;1.30;;;;;;;11.38;75.20;98483.35;105088;1274;76350;-26
2022/07/12 02:22:39;;;;;;;2.10;0.60;;;;;;;11.24;76.18;98485.39;104676;1274;77042;-25
2022/07/12 02:25:07;;;;;;;1.20;0.80;;;;;;;11.55;75.59;98483.05;104578;1274;75412;-25
2022/07/12 02:27:34;;;;;;;2.50;1.10;;;;;;;11.90;73.98;98482.91;104620;1274;63079;-24
2022/07/12 02:30:01;;;;;;;0.90;0.80;;;;;;;11.80;74.05;98480.17;104641;1274;63039;-25
2022/07/12 02:32:28;;;;;;;1.30;0.90;;;;;;;11.67;74.45;98479.80;104635;1274;75558;-24
2022/07/12 02:34:55;;;;;;;2.70;1.40;;;;;;;11.46;75.22;98480.23;104667;1274;77202;-25
2022/07/12 02:37:22;;;;;;;2.30;0.90;;;;;;;11.24;76.31;98480.52;104615;1274;74471;-24
2022/07/12 02:39:49;;;;;;;0.70;0.60;;;;;;;11.18;76.91;98481.06;104620;1274;65030;-24
2022/07/12 02:42:16;;;;;;;1.10;0.80;;;;;;;11.62;75.61;98480.77;104592;1274;61901;-24
2022/07/12 02:44:44;;;;;;;1.60;0.70;;;;;;;11.82;74.57;98481.38;104663;1274;75519;-24
2022/07/12 02:47:11;;;;;;;1.20;0.80;;;;;;;11.70;74.88;98482.25;104639;1274;77038;-25
2022/07/12 02:49:38;;;;;;;1.10;1.00;;;;;;;11.55;75.63;98483.57;104722;1274;75419;-25
2022/07/12 02:52:05;;;;;;;1.30;0.90;;;;;;;11.44;75.79;98488.23;104764;1274;62061;-25
2022/07/12 02:54:32;;;;;;;3.60;0.90;;;;;;;11.33;76.25;98484.55;104700;1274;62882;-24
2022/07/12 02:56:59;;;;;;;2.70;1.10;;;;;;;11.70;75.73;98488.05;104627;1274;74391;-24
2022/07/12 02:59:27;;;;;;;0.80;0.70;;;;;;;12.08;74.06;98486.51;104622;1274;75965;-24
2022/07/12 03:01:54;;;;;;;2.20;1.20;;;;;;;12.06;73.68;98486.61;104607;1274;73008;-25
2022/07/12 03:04:21;;;;;;;1.20;1.00;;;;;;;11.92;74.16;98485.77;104804;1274;62873;-25
2022/07/12 03:06:48;;;;;;;2.00;0.90;;;;;;;11.77;74.67;98486.52;104869;1274;61684;-25
2022/07/12 03:09:15;;;;;;;0.80;0.70;;;;;;;11.57;75.64;98479.69;104936;1271;75493;-24
2022/07/12 03:11:42;;;;;;;1.30;0.90;;;;;;;11.80;75.47;98478.80;104893;1271;77451;-24
2022/07/12 03:14:09;;;;;;;1.20;1.00;;;;;;;12.21;73.82;98475.73;104824;1271;75417;-25
2022/07/12 03:16:36;;;;;;;1.70;1.10;;;;;;;12.22;73.55;98473.55;104729;1271;62850;-25
2022/07/12 03:19:03;;;;;;;2.10;1.00;;;;;;;12.18;73.23;98476.39;105055;1271;63314;-25
2022/07/12 03:21:30;;;;;;;2.70;0.90;;;;;;;12.05;73.95;98472.06;105124;1271;76609;-25
2022/07/12 03:23:58;;;;;;;1.10;1.00;;;;;;;11.88;74.53;98468.59;104679;1272;75635;-25
2022/07/12 03:26:25;;;;;;;2.90;0.90;;;;;;;11.87;74.85;98467.36;104751;1274;76166;-24
2022/07/12 03:28:53;;;;;;;2.80;0.80;;;;;;;12.30;73.43;98471.69;104817;1274;61801;-24
2022/07/12 03:31:20;;;;;;;1.80;1.30;;;;;;;12.62;72.60;98474.00;104820;1271;63017;-24
2022/07/12 03:33:47;;;;;;;4.00;0.90;;;;;;;12.58;72.51;98478.04;104791;1272;75304;-24
2022/07/12 03:36:14;;;;;;;1.70;1.00;;;;;;;12.49;72.73;98477.58;105028;1274;77057;-25
2022/07/12 03:38:42;;;;;;;2.20;1.00;;;;;;;12.42;72.78;98482.94;105067;1274;74361;-24
2022/07/12 03:41:09;;;;;;;3.90;0.70;;;;;;;12.39;73.31;98482.55;105007;1271;63095;-25
2022/07/12 03:43:36;;;;;;;0.70;0.70;;;;;;;12.76;72.31;98482.97;104868;1271;62774;-25
2022/07/12 03:46:04;;;;;;;2.10;1.10;;;;;;;13.02;70.99;98476.66;104939;1271;76569;-24
2022/07/12 03:48:31;;;;;;;0.90;0.70;;;;;;;12.99;70.98;98477.89;104667;1274;75932;-24
2022/07/12 03:50:58;;;;;;;1.10;1.00;;;;;;;12.79;71.49;98480.05;104608;1274;75351;-24
2022/07/12 03:53:25;;;;;;;1.10;0.90;;;;;;;12.63;72.18;98481.88;104758;1274;63087;-24
2022/07/12 03:55:52;;;;;;;1.40;0.80;;;;;;;12.47;72.53;98480.40;104732;1274;62084;-24
2022/07/12 03:58:19;;;;;;;3.20;0.80;;;;;;;12.34;73.17;98483.38;104744;1274;75471;-24
2022/07/12 04:00:46;;;;;;;4.10;1.10;;;;;;;12.66;72.48;98484.05;104783;1271;75873;-25
2022/07/12 04:03:13;;;;;;;0.90;0.60;;;;;;;12.98;71.25;98481.58;104755;1271;75409;-26
2022/07/12 04:05:40;;;;;;;1.20;0.80;;;;;;;12.92;71.34;98478.02;104807;1272;63199;-25
2022/07/12 04:08:08;;;;;;;1.10;0.90;;;;;;;12.76;71.92;98477.45;104897;1271;61124;-24
2022/07/12 04:10:35;;;;;;;0.80;0.80;;;;;;;12.64;72.38;98480.77;104736;1274;76425;-25
2022/07/12 04:13:02;;;;;;;3.60;0.90;;;;;;;12.53;72.45;98477.30;104797;1272;77082;-25
2022/07/12 04:15:29;;;;;;;4.40;0.80;;;;;;;12.66;72.79;98481.33;104746;1274;73247;-25
2022/07/12 04:17:56;;;;;;;1.30;0.90;;;;;;;13.17;71.01;98480.02;104755;1271;62770;-25
2022/07/12 04:20:24;;;;;;;0.80;0.70;;;;;;;13.36;70.45;98484.94;104816;1272;62059;-25
2022/07/12 04:22:51;;;;;;;3.20;1.00;;;;;;;13.22;70.51;98478.00;104677;1274;74137;-24
2022/07/12 04:25:18;;;;;;;3.40;1.00;;;;;;;13.07;70.98;98477.20;104879;1271;76054;-25
2022/07/12 04:27:45;;;;;;;1.30;0.80;;;;;;;13.00;71.31;98481.53;104814;1271;75377;-24
2022/07/12 04:30:13;;;;;;;3.30;0.80;;;;;;;12.79;72.09;98483.45;104891;1271;62095;-24
2022/07/12 04:32:40;;;;;;;1.10;0.80;;;;;;;13.03;71.92;98486.17;104792;1271;63070;-25
2022/07/12 04:35:07;;;;;;;1.70;0.50;;;;;;;13.42;70.47;98486.73;104827;1271;76611;-25
2022/07/12 04:37:34;;;;;;;4.20;0.90;;;;;;;13.49;69.93;98483.35;104762;1271;76870;-25
2022/07/12 04:40:01;;;;;;;2.50;0.80;;;;;;;13.34;70.56;98486.05;104726;1272;75412;-25
2022/07/12 04:42:29;;;;;;;3.00;1.10;;;;;;;13.22;71.02;98485.42;104733;1274;62006;-25
2022/07/12 04:44:56;;;;;;;1.20;0.90;;;;;;;13.10;71.25;98484.74;104801;1274;63026;-24
2022/07/12 04:47:23;;;;;;;1.20;0.60;;;;;;;13.03;71.79;98482.64;104702;1272;76528;-25
2022/07/12 04:49:50;;;;;;;0.90;0.70;;;;;;;13.38;71.07;98481.79;104737;1274;77072;-25
2022/07/12 04:52:17;;;;;;;2.10;1.10;;;;;;;13.68;69.95;98475.97;104716;1271;74012;-24
2022/07/12 04:54:44;;;;;;;1.20;1.00;;;;;;;13.62;70.09;98478.35;104695;1271;63386;-25
2022/07/12 04:57:11;;;;;;;2.20;1.10;;;;;;;13.42;70.58;98475.58;104757;1271;63081;-25
2022/07/12 04:59:38;;;;;;;4.00;1.10;;;;;;;13.37;71.01;98477.16;104816;1272;76672;-24
2022/07/12 05:02:06;;;;;;;1.60;1.10;;;;;;;13.27;71.43;98477.17;105131;1271;77039;-25
2022/07/12 05:04:33;;;;;;;2.40;0.80;;;;;;;13.28;71.54;98480.55;105075;1271;74384;-25
2022/07/12 05:07:00;;;;;;;0.80;0.70;;;;;;;13.74;70.57;98482.02;105082;1274;61144;-25
2022/07/12 05:09:27;;;;;;;1.10;0.80;;;;;;;13.97;69.45;98482.56;104916;1274;62766;-25
2022/07/12 05:11:54;;;;;;;2.10;1.10;;;;;;;13.96;69.43;98485.64;104612;1274;76467;-24
2022/07/12 05:14:22;;;;;;;1.60;0.80;;;;;;;13.89;69.61;98481.50;104635;1274;76986;-25
2022/07/12 05:16:49;;;;;;;1.20;0.80;;;;;;;13.82;69.88;98480.14;104659;1274;75428;-25
2022/07/12 05:19:16;;;;;;;1.50;0.90;;;;;;;13.61;70.67;98485.23;104622;1274;61182;-25
2022/07/12 05:21:44;;;;;;;3.70;0.90;;;;;;;13.42;70.98;98480.89;104645;1274;63040;-25
2022/07/12 05:24:11;;;;;;;0.80;0.50;;;;;;;13.56;71.10;98486.31;104675;1274;76577;-25
2022/07/12 05:26:38;;;;;;;1.90;0.80;;;;;;;13.96;69.78;98488.41;104652;1274;76992;-25
2022/07/12 05:29:05;;;;;;;1.40;0.80;;;;;;;14.11;69.06;98485.45;104618;1274;75727;-24
2022/07/12 05:31:32;;;;;;;5.30;0.90;;;;;;;14.05;69.14;98487.48;104628;1274;62792;-25
2022/07/12 05:34:00;;;;;;;1.90;1.10;;;;;;;13.87;69.84;98490.20;104687;1274;62931;-25
2022/07/12 05:36:27;;;;;;;3.20;1.20;;;;;;;13.74;70.41;98493.66;104668;1274;76547;-25
2022/07/12 05:38:55;;;;;;;25.60;1.70;;;;;;;13.76;71.19;98495.60;104676;1274;76938;-25
2022/07/12 05:41:22;;;;;;;0.90;0.70;;;;;;;13.70;70.82;98491.64;104671;1274;75682;-24
2022/07/12 05:43:49;;;;;;;1.60;0.90;;;;;;;14.15;69.21;98493.39;104774;1274;62021;-24
2022/07/12 05:46:16;;;;;;;2.10;0.80;;;;;;;14.39;67.92;98496.46;104685;1274;63065;-25
2022/07/12 05:48:43;;;;;;;1.90;1.00;;;;;;;14.50;67.75;98502.42;104861;1274;75297;-25
2022/07/12 05:53:56;;;;;;;2.70;0.80;;;;;;;14.39;68.22;98503.16;104677;1274;75598;-24
2022/07/12 05:56:23;;;;;;;2.20;1.10;;;;;;;14.20;68.65;98505.53;104654;1274;63041;-24
2022/07/12 05:58:51;;;;;;;3.10;1.00;;;;;;;14.11;69.17;98507.14;104988;1274;63090;-24
2022/07/12 06:01:18;;;;;;;1.70;0.80;;;;;;;14.02;69.17;98507.34;104739;1274;75594;-25
2022/07/12 06:03:46;;;;;;;2.10;1.10;;;;;;;14.20;68.98;98503.38;104774;1271;75533;-24
2022/07/12 06:06:13;;;;;;;2.30;1.00;;;;;;;14.63;67.45;98496.75;104997;1274;75562;-25
2022/07/12 06:08:41;;;;;;;0.90;0.80;;;;;;;14.71;67.02;98495.71;104959;1273;62770;-24
2022/07/12 06:11:08;;;;;;;1.70;1.00;;;;;;;14.59;67.37;98495.30;105000;1272;63061;-25
2022/07/12 06:13:35;;;;;;;0.70;0.70;;;;;;;14.41;68.29;98498.27;104707;1272;76318;-25
2022/07/12 06:16:05;;;;;;;1.40;1.00;;;;;;;14.37;68.54;98504.34;104360;1272;491263;-25
2022/07/12 06:18:36;;;;;;;1.40;0.90;;;;;;;14.23;68.86;98498.04;104885;1271;75338;-24
2022/07/12 06:21:04;;;;;;;2.80;1.20;;;;;;;14.22;68.73;98501.94;104665;1271;61122;-24
2022/07/12 06:23:31;;;;;;;2.80;1.00;;;;;;;14.23;68.95;98504.16;104995;1271;61944;-24
2022/07/12 06:25:58;;;;;;;3.10;1.00;;;;;;;14.71;67.82;98507.07;104892;1271;75490;-23
2022/07/12 06:28:25;;;;;;;1.70;1.10;;;;;;;14.87;67.63;98504.38;104824;1271;75858;-24
2022/07/12 06:30:52;;;;;;;2.30;1.00;;;;;;;14.99;66.96;98504.86;104717;1274;74410;-24
2022/07/12 06:33:20;;;;;;;1.80;1.10;;;;;;;15.06;67.18;98510.04;104872;1271;63414;-24
2022/07/12 06:35:47;;;;;;;1.30;1.20;;;;;;;15.12;66.56;98511.28;104966;1270;62890;-24
2022/07/12 06:38:15;;;;;;;2.40;1.00;;;;;;;15.14;66.56;98511.80;104755;1271;76583;-24
2022/07/12 06:40:42;;;;;;;1.80;1.10;;;;;;;15.12;66.87;98512.17;104858;1271;77184;-24
2022/07/12 06:43:10;;;;;;;1.60;1.00;;;;;;;15.22;66.97;98510.17;104831;1271;75405;-24
2022/07/12 06:45:37;;;;;;;1.50;0.80;;;;;;;15.39;66.56;98511.17;104781;1272;64389;-24
2022/07/12 06:48:05;;;;;;;5.30;1.10;;;;;;;15.79;65.65;98509.55;104969;1270;61802;-24
2022/07/12 06:50:33;;;;;;;2.50;1.30;;;;;;;16.22;63.43;98513.38;104766;1271;76569;-24
2022/07/12 06:53:00;;;;;;;1.20;1.10;;;;;;;16.33;63.42;98508.10;104756;1271;76137;-24
2022/07/12 06:55:27;;;;;;;1.40;1.00;;;;;;;16.14;63.64;98508.16;104684;1271;74398;-24
2022/07/12 06:57:54;;;;;;;3.20;1.20;;;;;;;16.13;63.88;98512.58;104877;1271;62821;-24
2022/07/12 07:00:21;;;;;;;3.20;1.10;;;;;;;16.08;64.33;98507.29;104887;1271;63277;-24
2022/07/12 07:02:48;;;;;;;2.00;1.20;;;;;;;15.94;64.55;98506.73;105076;1271;76644;-24
2022/07/12 07:05:17;;;;;;;1.50;0.90;;;;;;;15.92;64.31;98508.86;104825;1271;77372;-24
2022/07/12 07:07:44;;;;;;;2.40;1.10;;;;;;;15.87;64.58;98504.17;104795;1271;75145;-24
2022/07/12 07:10:12;;;;;;;1.50;1.30;;;;;;;15.79;65.32;98500.54;104947;1271;62696;-24
2022/07/12 07:12:39;;;;;;;1.20;1.10;;;;;;;15.72;65.97;98506.83;104905;1271;62007;-24
2022/07/12 07:15:07;;;;;;;1.50;1.00;;;;;;;15.75;65.28;98508.39;104773;1272;76427;-24
2022/07/12 07:17:34;;;;;;;3.70;1.30;;;;;;;15.73;65.92;98507.02;104707;1271;77371;-24
2022/07/12 07:20:02;;;;;;;3.50;1.10;;;;;;;15.72;65.68;98512.80;104772;1271;75100;-24
2022/07/12 07:22:29;;;;;;;3.80;1.00;;;;;;;16.01;65.24;98517.14;104811;1271;62661;-24
2022/07/12 07:24:56;;;;;;;4.20;1.30;;;;;;;16.00;67.72;98521.29;104741;1271;61909;-22
2022/07/12 07:27:24;;;;;;;4.30;1.20;;;;;;;15.60;69.74;98522.58;104779;1271;76318;-22
2022/07/12 07:32:37;;;;;;;2.20;1.10;;;;;;;14.73;74.05;98531.14;104669;1271;75125;-23
2022/07/12 07:35:05;;;;;;;1.90;1.10;;;;;;;14.44;74.89;98527.50;104685;1271;62919;-23
2022/07/12 07:37:33;;;;;;;1.90;0.90;;;;;;;14.30;75.76;98521.69;104654;1271;63284;-23
2022/07/12 07:42:24;;;;;;;1.20;1.10;;;;;;;15.04;73.93;98522.66;101713;1309;600506;-22
2022/07/12 07:44:51;;;;;;;1.40;1.20;;;;;;;15.10;73.87;98519.34;103977;1286;62921;-22
2022/07/12 07:47:45;;;;;;;2.30;1.70;;;;;;;14.87;75.26;98521.48;104283;1284;62985;-22
2022/07/12 07:50:32;;;;;;;3.70;1.60;;;;;;;14.70;76.70;98521.00;103920;1284;73494;-22
2022/07/12 07:52:59;;;;;;;2.20;1.20;;;;;;;14.71;76.33;98524.01;103766;1284;77260;-22
2022/07/12 07:55:27;;;;;;;2.20;1.60;;;;;;;15.22;75.02;98522.92;103458;1281;349712;-22
2022/07/12 07:57:54;;;;;;;4.70;1.50;;;;;;;15.70;73.87;98522.26;104205;1281;62853;-22
2022/07/12 08:00:22;;;;;;;2.10;1.90;;;;;;;15.51;73.86;98518.36;104010;1281;62759;-22
2022/07/12 08:02:49;;;;;;;2.10;1.70;;;;;;;15.52;73.82;98518.73;104615;1274;74932;-22
2022/07/12 08:05:16;;;;;;;2.10;1.90;;;;;;;15.49;74.42;98519.50;104576;1274;75675;-22
2022/07/12 08:07:44;;;;;;;1.80;1.30;;;;;;;15.55;74.83;98518.84;104423;1274;75276;-22
2022/07/12 08:10:21;;;;;;;2.00;1.50;;;;;;;16.14;73.40;98523.89;104739;1274;61848;-25
2022/07/12 08:12:48;;;;;;;3.90;1.70;;;;;;;16.50;69.96;98515.25;104816;1274;62786;-22
2022/07/12 08:15:15;;;;;;;2.10;1.90;;;;;;;16.64;69.50;98521.88;104607;1274;74975;-24
2022/07/12 08:17:42;;;;;;;2.60;2.00;;;;;;;16.62;69.62;98518.81;104690;1274;74720;-24
2022/07/12 08:20:18;;;;;;;2.20;1.90;;;;;;;16.60;68.79;98515.91;104813;1275;74396;-22
2022/07/12 08:23:05;;;;;;;3.50;1.60;;;;;;;16.53;68.69;98511.34;104817;1274;63119;-22
2022/07/12 08:25:32;;;;;;;1.90;1.70;;;;;;;16.49;69.15;98511.82;104817;1275;62401;-22
2022/07/12 08:27:59;;;;;;;1.90;1.60;;;;;;;16.61;68.01;98507.15;104643;1274;76076;-25
2022/07/12 08:30:26;;;;;;;2.00;1.70;;;;;;;17.06;67.45;98506.05;104576;1274;76830;-26
2022/07/12 08:32:55;;;;;;;4.30;1.80;;;;;;;17.52;65.04;98501.95;104594;1274;75388;-23
2022/07/12 08:35:22;;;;;;;1.60;1.50;;;;;;;17.67;62.82;98505.29;104679;1274;61121;-24
2022/07/12 08:37:49;;;;;;;1.80;1.40;;;;;;;17.54;64.07;98506.98;104582;1274;62059;-23
2022/07/12 08:40:16;;;;;;;2.80;1.70;;;;;;;17.44;64.76;98506.25;104640;1274;74486;-24
2022/07/12 08:42:45;;;;;;;3.10;1.90;;;;;;;17.39;64.99;98504.90;104918;1273;75485;-24
2022/07/12 08:45:12;;;;;;;1.60;1.20;;;;;;;17.27;63.55;98505.23;104761;1275;74414;-24
2022/07/12 08:47:39;;;;;;;3.00;1.10;;;;;;;17.16;61.36;98492.66;104689;1274;61323;-23
2022/07/12 08:50:13;;;;;;;2.10;1.30;;;;;;;17.13;62.69;98498.48;104816;1275;62027;-25
2022/07/12 08:52:42;;;;;;;1.10;1.00;;;;;;;17.25;62.16;98499.01;104942;1274;75839;-24
2022/07/12 08:55:30;;;;;;;1.10;1.00;;;;;;;17.26;61.44;98495.09;104721;1275;75742;-23
2022/07/12 08:58:05;;;;;;;2.70;1.40;;;;;;;17.24;61.60;98499.73;104665;1275;75732;-23
2022/07/12 09:00:32;;;;;;;2.80;1.00;;;;;;;17.39;62.42;98494.69;104438;1275;62862;-23
2022/07/12 09:03:02;;;;;;;0.80;0.80;;;;;;;17.40;61.24;98489.63;104627;1274;62127;-23
2022/07/12 09:05:30;;;;;;;1.60;0.80;;;;;;;17.32;59.95;98486.71;104466;1275;75778;-23
2022/07/12 09:08:08;;;;;;;1.50;1.10;;;;;;;17.54;59.66;98491.33;104656;1275;77048;-23
2022/07/12 09:10:50;;;;;;;2.30;0.90;;;;;;;17.76;59.88;98487.45;104526;1275;75279;-23
2022/07/12 09:13:18;;;;;;;2.00;0.80;;;;;;;17.76;59.25;98489.39;104437;1274;61900;-23
2022/07/12 09:15:48;;;;;;;1.90;1.00;;;;;;;17.83;57.75;98491.77;104559;1274;63082;-23
2022/07/12 09:18:17;;;;;;;3.10;0.90;;;;;;;18.01;57.63;98487.53;104706;1274;75531;-23
2022/07/12 09:20:51;;;;;;;0.50;0.50;;;;;;;18.06;57.11;98493.46;104916;1273;75927;-23
2022/07/12 09:23:18;;;;;;;1.50;0.70;;;;;;;18.00;56.09;98487.84;104740;1274;75465;-24
2022/07/12 09:25:46;;;;;;;1.20;1.00;;;;;;;17.87;56.70;98489.30;104775;1274;63119;-23
2022/07/12 09:28:14;;;;;;;1.60;0.90;;;;;;;17.70;56.58;98487.13;104715;1275;63224;-23
2022/07/12 09:30:49;;;;;;;0.60;0.60;;;;;;;17.67;57.10;98486.26;104504;1274;74714;-24
2022/07/12 09:36:06;;;;;;;1.30;0.80;;;;;;;17.29;58.61;98475.14;104724;1274;75432;-24
2022/07/12 09:38:37;;;;;;;4.20;0.90;;;;;;;17.05;61.17;98479.92;104845;1275;63010;-24
2022/07/12 09:41:08;;;;;;;1.10;0.70;;;;;;;17.05;60.53;98481.01;104725;1275;63908;-24
2022/07/12 09:43:35;;;;;;;1.70;0.60;;;;;;;17.09;59.75;98487.14;104539;1275;75843;-24
2022/07/12 09:46:02;;;;;;;1.90;0.60;;;;;;;17.18;59.10;98484.52;104693;1274;75927;-24
2022/07/12 09:48:30;;;;;;;1.90;0.80;;;;;;;17.36;58.34;98486.38;104681;1274;74743;-24
2022/07/12 09:50:58;;;;;;;1.20;0.80;;;;;;;17.55;57.35;98481.54;104677;1274;62828;-23
2022/07/12 09:53:33;;;;;;;1.50;0.80;;;;;;;17.84;57.71;98483.48;104917;1274;62105;-23
2022/07/12 09:56:05;;;;;;;4.70;0.90;;;;;;;18.25;56.86;98483.06;104672;1274;76194;-23
2022/07/12 09:58:45;;;;;;;1.10;0.80;;;;;;;18.53;54.48;98479.29;104785;1277;74900;-23
2022/07/12 10:01:12;;;;;;;1.00;0.60;;;;;;;18.77;53.75;98468.92;104725;1274;75726;-23
2022/07/12 10:03:43;;;;;;;0.80;0.50;;;;;;;18.74;52.49;98471.05;104839;1274;63067;-24
2022/07/12 10:19:22;;;;;;;0.60;0.60;;;;;;;19.44;51.55;98465.24;105074;1274;71423;-24
2022/07/12 10:21:51;;;;;;;0.50;0.50;;;;;;;19.42;50.85;98465.04;104587;1274;61895;-24
2022/07/12 10:24:31;;;;;;;4.90;0.60;;;;;;;19.25;50.52;98462.04;104446;1274;62151;-25
2022/07/12 10:27:00;;;;;;;0.80;0.70;;;;;;;19.32;52.45;98469.78;104691;1277;75833;-25
2022/07/12 10:29:27;;;;;;;2.00;0.60;;;;;;;19.41;51.91;98458.66;104465;1275;75212;-24
2022/07/12 10:31:55;;;;;;;1.50;1.00;;;;;;;19.19;51.77;98456.65;104558;1274;75155;-25
2022/07/12 10:34:23;;;;;;;4.50;0.80;;;;;;;19.17;49.96;98454.81;104827;1274;61082;-25
2022/07/12 10:36:54;;;;;;;0.60;0.50;;;;;;;19.25;51.10;98453.91;104670;1275;63051;-25
2022/07/12 10:39:41;;;;;;;0.40;0.40;;;;;;;19.34;49.41;98447.87;104747;1274;73460;-22
2022/07/12 10:42:12;;;;;;;2.80;0.50;;;;;;;19.37;49.26;98459.95;104647;1274;75908;-24
2022/07/12 10:44:49;;;;;;;1.70;0.50;;;;;;;19.58;48.23;98453.30;104669;1274;74743;-23
2022/07/12 10:47:18;;;;;;;2.00;0.50;;;;;;;19.62;49.43;98457.67;104895;1274;62888;-24
2022/07/12 10:49:49;;;;;;;0.60;0.50;;;;;;;19.41;48.87;98448.78;104885;1274;62926;-25
2022/07/12 10:52:22;;;;;;;0.40;0.40;;;;;;;19.49;49.01;98454.62;104719;1274;75484;-25
2022/07/12 10:54:56;;;;;;;1.80;0.60;;;;;;;19.26;49.43;98455.63;104413;1275;76268;-24
2022/07/12 10:57:46;;;;;;;1.00;0.40;;;;;;;19.11;49.68;98453.77;104564;1274;73731;-23
2022/07/12 11:00:14;;;;;;;0.60;0.50;;;;;;;19.10;49.59;98448.45;104599;1274;61232;-23
2022/07/12 11:02:43;;;;;;;0.30;0.30;;;;;;;19.05;49.51;98447.64;104611;1274;63028;-24
2022/07/12 11:05:10;;;;;;;1.70;0.40;;;;;;;19.10;49.80;98452.34;104550;1274;75507;-25
2022/07/12 11:07:38;;;;;;;0.70;0.50;;;;;;;19.19;49.88;98449.07;104756;1274;75805;-23
2022/07/12 11:10:06;;;;;;;0.90;0.40;;;;;;;19.42;50.39;98456.59;104856;1274;75448;-23
2022/07/12 11:12:34;;;;;;;0.70;0.50;;;;;;;19.76;49.66;98447.96;104639;1274;61035;-24
2022/07/12 11:15:02;;;;;;;0.60;0.30;;;;;;;19.68;49.09;98439.45;104576;1274;61956;-25
2022/07/12 11:17:31;;;;;;;0.50;0.40;;;;;;;19.55;47.62;98433.56;104447;1274;75847;-23
2022/07/12 11:20:10;;;;;;;0.40;0.30;;;;;;;19.27;48.38;98447.10;104744;1274;77168;-24
2022/07/12 11:22:41;;;;;;;2.40;0.50;;;;;;;19.33;49.91;98448.88;104713;1275;75493;-24
2022/07/12 11:25:09;;;;;;;1.30;0.50;;;;;;;19.58;48.23;98447.14;104645;1274;62780;-24
2022/07/12 11:27:38;;;;;;;1.40;0.50;;;;;;;19.84;49.20;98443.59;104656;1274;63035;-24
2022/07/12 11:30:08;;;;;;;0.40;0.40;;;;;;;19.92;48.41;98452.61;104767;1274;74648;-24
2022/07/12 11:32:36;;;;;;;0.60;0.40;;;;;;;19.89;47.80;98439.86;104374;1275;76104;-24
2022/07/12 11:35:05;;;;;;;1.50;0.40;;;;;;;19.84;48.43;98441.81;104621;1277;75656;-24
2022/07/12 11:37:32;;;;;;;0.80;0.50;;;;;;;19.90;48.99;98448.73;104545;1275;63130;-23
2022/07/12 11:39:59;;;;;;;0.50;0.50;;;;;;;20.05;47.85;98437.23;104689;1275;62417;-24
2022/07/12 11:42:27;;;;;;;0.60;0.40;;;;;;;20.00;47.68;98431.16;104729;1274;75888;-24
2022/07/12 11:44:55;;;;;;;1.80;0.40;;;;;;;20.14;47.24;98428.83;104885;1274;77271;-24
2022/07/12 11:47:23;;;;;;;1.30;0.50;;;;;;;20.40;47.12;98418.57;104676;1274;74483;-24
2022/07/12 11:49:54;;;;;;;0.90;0.40;;;;;;;20.65;45.39;98421.11;104563;1275;61099;-24
2022/07/12 11:52:23;;;;;;;1.30;0.40;;;;;;;20.71;45.95;98413.82;104709;1275;63135;-24